Time;durP1;ratioP1;P1;durP2;ratioP2;P2;SDS_P1;SDS_P2;PMS_P1;PMS_P2;Temp;Humidity;BMP_temperature;BMP_pressure;BME280_temperature;BME280_humidity;BME280_pressure;Samples;Min_cycle;Max_cycle;Signal;HPM_P1;HPM_P2
2022/06/26 00:00:46;;;;;;;8.07;7.28;;;;;;;19.66;63.85;99556.91;5034530;28;20085;-65
2022/06/26 00:03:12;;;;;;;8.35;7.55;;;;;;;19.63;63.96;99576.28;5034691;28;20128;-63
2022/06/26 00:05:38;;;;;;;8.82;7.80;;;;;;;19.61;64.01;99570.41;5032989;28;20045;-65
2022/06/26 00:08:05;;;;;;;11.77;7.75;;;;;;;19.60;64.12;99570.72;5032820;28;20064;-63
2022/06/26 00:10:30;;;;;;;9.25;6.97;;;;;;;19.61;64.14;99573.09;5032904;28;20053;-64
2022/06/26 00:12:56;;;;;;;9.43;7.70;;;;;;;19.62;64.14;99571.19;5033921;28;20053;-63
2022/06/26 00:15:22;;;;;;;10.57;7.95;;;;;;;19.62;64.17;99579.25;5032863;28;20053;-62
2022/06/26 00:17:48;;;;;;;9.27;8.18;;;;;;;19.57;64.20;99580.16;5032961;28;20049;-62
2022/06/26 00:20:14;;;;;;;9.02;8.00;;;;;;;19.56;64.31;99583.13;5033031;28;20041;-63
2022/06/26 00:22:40;;;;;;;13.85;8.60;;;;;;;19.51;64.51;99586.69;5034386;28;20441;-62
2022/06/26 00:25:08;;;;;;;9.70;8.18;;;;;;;19.49;64.45;99573.53;5033921;28;20053;-63
2022/06/26 00:27:36;;;;;;;10.93;8.73;;;;;;;19.48;64.57;99579.22;5034284;28;20049;-63
2022/06/26 00:30:02;;;;;;;11.18;8.00;;;;;;;19.46;64.59;99578.69;5033790;28;20056;-63
2022/06/26 00:32:29;;;;;;;10.02;8.38;;;;;;;19.45;64.91;99585.97;5000428;28;20622;-63
2022/06/26 00:34:55;;;;;;;9.32;8.07;;;;;;;19.45;64.51;99580.59;5033704;28;20275;-63
2022/06/26 00:37:21;;;;;;;13.13;8.07;;;;;;;19.46;64.71;99581.38;5032580;28;20041;-62
2022/06/26 00:39:46;;;;;;;12.25;8.75;;;;;;;19.45;65.00;99577.91;5032369;28;20049;-62
2022/06/26 00:42:12;;;;;;;10.52;8.63;;;;;;;19.43;64.82;99573.91;5033850;28;20126;-62
2022/06/26 00:44:38;;;;;;;11.15;8.00;;;;;;;19.42;64.95;99580.38;5033495;28;20050;-63
2022/06/26 00:47:04;;;;;;;12.75;8.23;;;;;;;19.40;65.15;99582.56;5032293;28;20060;-63
2022/06/26 00:49:30;;;;;;;9.45;8.05;;;;;;;19.42;64.82;99591.94;5033634;28;20050;-63
2022/06/26 00:51:56;;;;;;;9.45;8.43;;;;;;;19.45;65.01;99594.03;5015655;28;20387;-62
2022/06/26 00:54:26;;;;;;;11.07;8.40;;;;;;;19.53;64.63;99595.28;5033127;28;20048;-61
2022/06/26 00:56:55;;;;;;;15.43;10.75;;;;;;;19.60;64.99;99597.59;5033532;28;20061;-63
2022/06/26 00:59:23;;;;;;;15.30;11.15;;;;;;;19.61;65.00;99591.91;5033533;28;20053;-64
2022/06/26 01:01:49;;;;;;;21.10;12.90;;;;;;;19.67;65.00;99593.47;5031956;28;20042;-62
2022/06/26 01:04:16;;;;;;;17.85;13.07;;;;;;;19.74;64.86;99596.59;5015503;28;20056;-62
2022/06/26 01:06:42;;;;;;;19.33;13.68;;;;;;;19.82;64.52;99595.09;5031907;28;20072;-62
2022/06/26 01:09:10;;;;;;;18.95;12.02;;;;;;;19.96;63.84;99598.66;5030842;28;20068;-63
2022/06/26 01:11:37;;;;;;;15.77;11.48;;;;;;;20.14;63.52;99597.00;5033052;28;20128;-64
2022/06/26 01:14:03;;;;;;;13.95;11.15;;;;;;;20.34;62.82;99598.53;5031903;28;20066;-63
2022/06/26 01:16:29;;;;;;;14.15;11.23;;;;;;;20.56;62.21;99592.53;5032017;28;20072;-63
2022/06/26 01:18:56;;;;;;;13.23;10.45;;;;;;;20.78;61.20;99591.81;4998978;28;20507;-63
2022/06/26 01:21:24;;;;;;;13.27;10.90;;;;;;;20.99;60.51;99594.09;5032058;28;20065;-63
2022/06/26 01:23:51;;;;;;;16.98;10.77;;;;;;;21.19;60.09;99595.56;5032841;28;20049;-62
2022/06/26 01:26:18;;;;;;;14.65;11.10;;;;;;;21.47;58.98;99596.31;5032689;28;20045;-63
2022/06/26 01:28:44;;;;;;;14.85;11.75;;;;;;;21.70;58.20;99602.53;5015181;28;20057;-63
2022/06/26 01:31:10;;;;;;;14.93;11.18;;;;;;;21.95;57.26;99604.63;5031699;28;20048;-63
2022/06/26 01:33:36;;;;;;;16.85;11.05;;;;;;;22.20;56.76;99605.91;5031335;28;20104;-63
2022/06/26 01:36:03;;;;;;;16.80;9.95;;;;;;;22.54;55.67;99607.22;5031670;28;20049;-62
2022/06/26 01:38:29;;;;;;;15.20;11.52;;;;;;;22.86;54.84;99614.16;5015275;28;20128;-63
2022/06/26 01:40:56;;;;;;;16.15;11.15;;;;;;;23.19;54.05;99618.41;5031342;28;20342;-63
2022/06/26 01:43:34;;;;;;;13.02;10.57;;;;;;;23.44;52.66;99606.00;5015030;28;20049;-63
2022/06/26 01:46:00;;;;;;;15.57;11.38;;;;;;;23.73;51.99;99610.81;5031312;28;20533;-62
2022/06/26 01:48:31;;;;;;;18.15;11.52;;;;;;;23.94;51.41;99611.78;5015156;28;20045;-62
2022/06/26 01:50:59;;;;;;;18.30;13.57;;;;;;;24.15;50.64;99609.19;5031168;28;20076;-63
2022/06/26 01:53:26;;;;;;;15.73;11.23;;;;;;;24.37;50.17;99610.84;4998475;28;20056;-63
2022/06/26 01:55:52;;;;;;;15.80;10.18;;;;;;;24.60;49.26;99605.22;5031065;28;20423;-64
2022/06/26 01:58:26;;;;;;;10.68;9.43;;;;;;;24.89;48.60;99602.53;5015792;28;20049;-64
2022/06/26 02:00:55;;;;;;;13.00;10.40;;;;;;;25.02;48.29;99606.13;5031152;28;20132;-62
2022/06/26 02:03:25;;;;;;;13.77;10.45;;;;;;;25.37;47.30;99604.00;5030993;28;20183;-64
2022/06/26 02:05:51;;;;;;;13.15;11.27;;;;;;;25.66;46.65;99612.41;5031068;28;20049;-63
2022/06/26 02:08:17;;;;;;;15.85;10.15;;;;;;;25.89;45.98;99613.66;5030951;28;20045;-62
2022/06/26 02:13:36;;;;;;;12.55;9.70;;;;;;;26.06;45.50;99612.69;5016833;28;20065;-63
2022/06/26 02:16:05;;;;;;;17.17;10.05;;;;;;;26.26;44.97;99624.63;5047270;28;20068;-63
2022/06/26 02:18:31;;;;;;;14.80;11.00;;;;;;;26.30;45.08;99633.69;5030571;28;20049;-63
2022/06/26 02:20:57;;;;;;;18.55;11.85;;;;;;;26.45;44.57;99629.53;4997925;28;20045;-65
2022/06/26 02:23:23;;;;;;;13.50;9.85;;;;;;;26.52;43.57;99629.00;5032167;28;20044;-63
2022/06/26 02:25:51;;;;;;;15.00;11.18;;;;;;;26.88;43.58;99637.16;5014462;28;20045;-62
2022/06/26 02:28:16;;;;;;;14.45;11.25;;;;;;;27.19;43.20;99638.53;5032042;28;20041;-63
2022/06/26 02:30:43;;;;;;;11.98;10.00;;;;;;;27.49;42.43;99640.97;5031637;28;20503;-65
2022/06/26 02:33:08;;;;;;;13.15;10.43;;;;;;;27.83;41.98;99645.88;5031478;28;20041;-63
2022/06/26 02:35:34;;;;;;;16.60;10.45;;;;;;;28.12;40.56;99646.66;5030342;28;20045;-62
2022/06/26 02:38:00;;;;;;;13.27;9.82;;;;;;;28.41;40.09;99650.94;5014241;28;20060;-62
2022/06/26 02:40:30;;;;;;;15.55;10.55;;;;;;;28.35;39.45;99649.59;5013846;28;20526;-63
2022/06/26 02:42:56;;;;;;;13.00;10.50;;;;;;;28.36;40.20;99653.91;5031706;28;20462;-63
2022/06/26 02:45:22;;;;;;;16.60;10.52;;;;;;;28.34;40.29;99656.19;5013751;28;20491;-63
2022/06/26 02:47:48;;;;;;;13.60;10.50;;;;;;;28.53;40.49;99658.25;5031279;28;20046;-63
2022/06/26 02:50:15;;;;;;;17.40;12.20;;;;;;;28.85;39.83;99652.78;5030051;28;20041;-64
2022/06/26 02:52:42;;;;;;;14.02;10.50;;;;;;;29.12;39.80;99656.56;5013779;28;20041;-62
2022/06/26 02:55:10;;;;;;;12.90;9.68;;;;;;;28.89;39.67;99656.41;5013590;28;20088;-63
2022/06/26 02:57:39;;;;;;;13.93;9.80;;;;;;;29.17;39.39;99659.81;5014178;28;20042;-62
2022/06/26 03:00:08;;;;;;;9.73;8.20;;;;;;;29.40;38.33;99659.16;5031467;28;20431;-62
2022/06/26 03:02:37;;;;;;;11.45;9.77;;;;;;;29.71;38.19;99661.00;5046830;28;20038;-62
2022/06/26 03:05:08;;;;;;;10.63;8.75;;;;;;;29.81;37.55;99657.69;5030265;28;20037;-62
2022/06/26 03:07:33;;;;;;;9.07;8.18;;;;;;;30.07;36.93;99659.75;5013587;28;20037;-63
2022/06/26 03:10:01;;;;;;;12.02;8.93;;;;;;;30.15;37.29;99663.41;5029971;28;20052;-63
2022/06/26 03:12:29;;;;;;;12.48;9.35;;;;;;;30.24;38.04;99665.97;5029982;28;20060;-62
2022/06/26 03:14:55;;;;;;;9.85;8.88;;;;;;;30.37;37.41;99669.31;5029863;28;20045;-62
2022/06/26 03:17:21;;;;;;;12.82;9.10;;;;;;;30.57;38.07;99668.09;5031380;28;20099;-63
2022/06/26 03:19:47;;;;;;;13.52;9.00;;;;;;;30.61;38.48;99673.63;5029764;28;20053;-62
2022/06/26 03:22:13;;;;;;;12.77;9.50;;;;;;;30.67;38.03;99677.63;5029987;28;20473;-64
2022/06/26 03:24:39;;;;;;;13.50;8.98;;;;;;;30.66;36.79;99676.84;5029868;28;20072;-62
2022/06/26 03:27:05;;;;;;;12.07;8.77;;;;;;;30.79;36.58;99688.41;5029820;28;20037;-63
2022/06/26 03:29:32;;;;;;;11.52;8.25;;;;;;;30.82;37.01;99686.88;5029944;28;20046;-63
2022/06/26 03:32:01;;;;;;;11.35;8.40;;;;;;;30.97;36.85;99685.94;5029900;28;20220;-63
2022/06/26 03:34:27;;;;;;;11.80;8.55;;;;;;;31.08;36.59;99689.66;5033549;28;20522;-63
2022/06/26 03:36:59;;;;;;;13.63;8.65;;;;;;;31.18;36.63;99691.75;5033605;28;20051;-63
2022/06/26 03:39:24;;;;;;;10.10;8.27;;;;;;;31.21;36.93;99688.28;5033522;28;20041;-64
2022/06/26 03:42:00;;;;;;;12.30;8.77;;;;;;;31.26;36.94;99686.38;5017774;28;20041;-63
2022/06/26 03:44:30;;;;;;;9.38;8.25;;;;;;;31.25;35.47;99680.13;5033598;28;20038;-61
2022/06/26 03:46:57;;;;;;;13.20;8.93;;;;;;;31.33;36.74;99684.53;5049992;28;20080;-63
2022/06/26 03:49:24;;;;;;;11.75;8.80;;;;;;;31.48;36.33;99682.03;5034868;28;20045;-63
2022/06/26 03:51:51;;;;;;;12.63;9.25;;;;;;;31.64;36.10;99683.41;5016916;28;20060;-63
2022/06/26 03:54:18;;;;;;;12.68;9.45;;;;;;;31.54;36.58;99686.81;5033393;28;20503;-62
2022/06/26 03:56:45;;;;;;;11.77;8.90;;;;;;;31.56;36.71;99684.50;5033290;28;20083;-65
2022/06/26 03:59:11;;;;;;;10.60;8.70;;;;;;;31.62;37.09;99690.41;5016691;28;20053;-63
2022/06/26 04:01:37;;;;;;;13.40;9.35;;;;;;;31.64;37.22;99675.19;5033157;28;20194;-64
2022/06/26 04:04:02;;;;;;;12.32;8.77;;;;;;;31.66;36.56;99680.31;5033135;28;20573;-63
2022/06/26 04:06:30;;;;;;;13.00;8.68;;;;;;;31.66;36.87;99685.78;5033247;28;20049;-63
2022/06/26 04:09:02;;;;;;;16.52;9.43;;;;;;;31.68;37.27;99687.00;5032968;28;20648;-63
2022/06/26 04:11:28;;;;;;;13.80;9.55;;;;;;;31.67;37.55;99690.09;5032958;28;20095;-63
2022/06/26 04:13:57;;;;;;;11.13;8.95;;;;;;;31.62;37.87;99690.41;5033229;28;20156;-63
2022/06/26 04:16:26;;;;;;;11.40;9.57;;;;;;;31.76;36.77;99689.81;5032896;28;20048;-63
2022/06/26 04:18:52;;;;;;;9.98;8.85;;;;;;;31.87;37.53;99691.53;5032762;28;20046;-63
2022/06/26 04:21:18;;;;;;;12.73;8.52;;;;;;;31.93;36.95;99677.53;5032826;28;20535;-63
2022/06/26 04:23:45;;;;;;;11.63;8.18;;;;;;;32.09;36.33;99706.31;5032948;28;20214;-63
2022/06/26 04:26:19;;;;;;;13.35;8.30;;;;;;;32.16;35.19;99696.59;5032638;28;20470;-62
2022/06/26 04:28:45;;;;;;;13.45;8.43;;;;;;;32.23;35.27;99697.44;5016435;28;20063;-62
2022/06/26 04:31:11;;;;;;;10.65;8.88;;;;;;;32.24;34.93;99699.03;5032610;28;20570;-63
2022/06/26 04:33:38;;;;;;;11.32;10.00;;;;;;;32.08;34.54;99701.19;5016245;28;20080;-62
2022/06/26 04:36:07;;;;;;;10.18;8.02;;;;;;;32.22;35.31;99706.81;5032818;28;20033;-63
2022/06/26 04:38:35;;;;;;;8.55;7.50;;;;;;;32.13;33.95;99706.34;5032420;28;20570;-63
2022/06/26 04:41:31;;;;;;;15.07;7.80;;;;;;;32.11;34.95;99706.69;5033919;28;20124;-64
2022/06/26 04:43:46;;;;;;;8.38;7.43;;;;;;;32.16;34.51;99711.06;5032574;28;20045;-64
2022/06/26 04:46:12;;;;;;;11.48;7.60;;;;;;;32.31;34.13;99710.06;5015837;28;20053;-64
2022/06/26 04:48:39;;;;;;;9.57;7.57;;;;;;;32.37;34.41;99709.72;5016033;28;20045;-63
2022/06/26 04:51:07;;;;;;;9.57;6.97;;;;;;;32.29;34.28;99711.59;5032249;28;20511;-63
2022/06/26 04:53:33;;;;;;;10.65;6.90;;;;;;;32.49;34.20;99704.00;5032185;28;20049;-63
2022/06/26 04:55:59;;;;;;;9.98;6.30;;;;;;;32.46;33.47;99691.81;5032234;28;20045;-64
2022/06/26 04:58:27;;;;;;;10.38;7.80;;;;;;;32.61;33.66;99706.44;5015687;28;20120;-64
2022/06/26 05:00:54;;;;;;;10.32;7.93;;;;;;;32.48;33.79;99711.44;5015616;28;20064;-63
2022/06/26 05:03:29;;;;;;;8.85;7.32;;;;;;;32.36;34.97;99703.44;5032050;28;20064;-63
2022/06/26 05:06:30;;;;;;;8.77;7.13;;;;;;;32.50;34.39;99713.78;5033069;28;20041;-62
2022/06/26 05:09:16;;;;;;;9.95;6.57;;;;;;;32.46;34.99;99707.50;5031898;28;20077;-62
2022/06/26 05:11:44;;;;;;;8.38;6.60;;;;;;;32.49;33.81;99718.50;5031931;28;20038;-62
2022/06/26 05:14:10;;;;;;;9.73;6.30;;;;;;;32.37;33.02;99707.75;5031677;28;20462;-62
2022/06/26 05:16:51;;;;;;;9.10;7.03;;;;;;;32.07;34.09;99711.38;5032203;28;20041;-62
2022/06/26 05:19:23;;;;;;;11.73;6.63;;;;;;;31.74;35.28;99711.31;5016239;28;20053;-63
2022/06/26 05:21:52;;;;;;;7.90;6.20;;;;;;;31.22;34.36;99717.25;5031896;28;20048;-63
2022/06/26 05:24:19;;;;;;;8.45;6.50;;;;;;;31.07;35.12;99717.41;5031849;28;20573;-63
2022/06/26 05:26:47;;;;;;;15.60;8.70;;;;;;;31.04;35.80;99720.88;5031309;28;20041;-63
2022/06/26 05:29:13;;;;;;;10.00;7.35;;;;;;;31.02;36.08;99726.69;5014905;28;20069;-62
2022/06/26 05:31:38;;;;;;;9.93;6.72;;;;;;;30.96;35.84;99717.22;5031468;28;20064;-62
2022/06/26 05:34:04;;;;;;;13.85;6.88;;;;;;;30.80;36.46;99716.56;5031633;28;20049;-64
2022/06/26 05:36:32;;;;;;;7.95;6.40;;;;;;;30.69;36.05;99721.84;5031279;28;20049;-63
2022/06/26 05:38:59;;;;;;;8.75;6.35;;;;;;;30.48;35.16;99720.31;5031243;28;20041;-63
2022/06/26 05:41:28;;;;;;;9.40;6.28;;;;;;;30.31;36.63;99723.50;5015293;28;20117;-63
2022/06/26 05:43:53;;;;;;;11.75;6.78;;;;;;;30.07;37.46;99719.09;5015060;28;20046;-62
2022/06/26 05:46:19;;;;;;;13.70;7.00;;;;;;;30.00;37.88;99722.50;5031158;28;20064;-63
2022/06/26 05:49:23;;;;;;;10.98;6.20;;;;;;;29.84;37.85;99717.06;5013469;28;20118;-63
2022/06/26 05:52:08;;;;;;;9.05;6.90;;;;;;;29.75;38.35;99712.97;5029932;28;20632;-63
2022/06/26 05:54:54;;;;;;;11.75;7.10;;;;;;;29.62;38.25;99720.50;5030849;28;20585;-63
2022/06/26 05:57:36;;;;;;;14.15;7.05;;;;;;;29.48;38.96;99718.22;5031101;28;20495;-62
2022/06/26 06:00:24;;;;;;;8.43;6.47;;;;;;;29.42;39.02;99717.72;5031241;28;20132;-63
2022/06/26 06:02:53;;;;;;;8.82;6.85;;;;;;;29.45;39.42;99718.16;5031151;28;20049;-62
2022/06/26 06:05:20;;;;;;;12.15;6.13;;;;;;;29.40;39.40;99721.94;5030816;28;20046;-63
2022/06/26 06:07:47;;;;;;;7.32;5.90;;;;;;;29.29;39.41;99718.97;5032282;28;20132;-64
2022/06/26 06:10:13;;;;;;;12.45;6.40;;;;;;;29.14;39.01;99715.13;5030809;28;20140;-63
2022/06/26 06:12:41;;;;;;;14.50;6.20;;;;;;;29.15;39.52;99718.63;5030628;28;20474;-63
2022/06/26 06:15:07;;;;;;;9.15;6.30;;;;;;;28.99;38.93;99716.69;5030867;28;20096;-63
2022/06/26 06:17:36;;;;;;;8.63;6.20;;;;;;;28.85;38.87;99712.81;5047223;28;20045;-63
2022/06/26 06:20:08;;;;;;;12.00;6.82;;;;;;;28.75;39.62;99720.38;5030616;28;20430;-63
2022/06/26 06:23:02;;;;;;;9.07;6.53;;;;;;;28.75;39.38;99720.38;5047180;28;20072;-63
2022/06/26 06:25:28;;;;;;;7.90;6.10;;;;;;;28.78;38.63;99721.63;5030301;28;20053;-64
2022/06/26 06:27:53;;;;;;;8.00;5.47;;;;;;;28.70;38.93;99720.63;5030602;28;20081;-63
2022/06/26 06:30:26;;;;;;;8.60;5.30;;;;;;;28.64;38.27;99713.84;5030412;28;20045;-62
2022/06/26 06:32:53;;;;;;;7.82;5.80;;;;;;;28.69;39.14;99724.50;5030465;28;20049;-62
2022/06/26 06:35:30;;;;;;;8.63;5.70;;;;;;;28.70;39.40;99711.66;5030701;28;20124;-60
2022/06/26 06:37:56;;;;;;;6.85;5.38;;;;;;;28.79;38.45;99706.03;5014180;28;20128;-63
2022/06/26 06:40:23;;;;;;;11.65;8.73;;;;;;;28.85;38.11;99716.31;5013902;28;20525;-63
2022/06/26 06:42:50;;;;;;;6.18;5.32;;;;;;;28.80;37.86;99713.09;5014243;28;20492;-64
2022/06/26 06:45:16;;;;;;;7.72;5.57;;;;;;;28.75;36.88;99720.38;5030172;28;20091;-62
2022/06/26 06:47:53;;;;;;;5.47;4.95;;;;;;;28.64;36.40;99721.25;5013584;28;20076;-63
2022/06/26 06:50:33;;;;;;;5.85;4.85;;;;;;;28.60;36.54;99720.38;5031637;28;20418;-62
2022/06/26 06:52:59;;;;;;;6.82;5.30;;;;;;;28.55;37.38;99724.16;5030384;28;20049;-64
2022/06/26 06:55:25;;;;;;;7.80;5.30;;;;;;;28.59;37.27;99713.31;5030017;28;20052;-64
2022/06/26 06:57:52;;;;;;;9.02;5.00;;;;;;;28.66;35.87;99716.25;5013868;28;20519;-64
2022/06/26 07:00:18;;;;;;;9.85;6.90;;;;;;;28.76;35.93;99734.81;5013596;28;20383;-63
2022/06/26 07:02:44;;;;;;;9.35;5.85;;;;;;;28.70;36.06;99717.91;5029916;28;20044;-65
2022/06/26 07:05:10;;;;;;;5.43;4.70;;;;;;;28.75;35.83;99714.94;5013885;28;20054;-63
2022/06/26 07:07:36;;;;;;;6.57;5.07;;;;;;;28.84;35.91;99733.06;5031035;28;20072;-64
2022/06/26 07:10:03;;;;;;;5.97;4.85;;;;;;;28.78;36.09;99726.28;5017729;28;20041;-63
2022/06/26 07:12:28;;;;;;;6.28;5.50;;;;;;;28.79;36.04;99722.41;5035458;28;20057;-63
2022/06/26 07:14:55;;;;;;;7.68;5.55;;;;;;;28.90;36.47;99727.00;5035407;28;20173;-64
2022/06/26 07:17:24;;;;;;;6.18;5.40;;;;;;;28.87;36.50;99730.41;5035363;28;20484;-63
2022/06/26 07:19:54;;;;;;;6.18;4.97;;;;;;;28.82;35.69;99721.69;5018315;28;20077;-63
2022/06/26 07:22:19;;;;;;;6.85;4.82;;;;;;;28.85;36.65;99727.25;5033825;28;20601;-62
2022/06/26 07:24:47;;;;;;;8.30;5.18;;;;;;;28.89;36.92;99721.91;5033802;28;20499;-64
2022/06/26 07:27:31;;;;;;;6.57;5.65;;;;;;;29.02;35.98;99728.03;5035353;28;20053;-63
2022/06/26 07:29:57;;;;;;;7.40;6.35;;;;;;;28.94;36.08;99724.34;5017557;28;20115;-63
2022/06/26 07:32:23;;;;;;;6.78;6.07;;;;;;;28.97;36.44;99727.19;5033820;28;20053;-64
2022/06/26 07:34:51;;;;;;;6.60;5.50;;;;;;;29.05;35.42;99730.88;5033693;28;20084;-64
2022/06/26 07:37:19;;;;;;;7.32;5.25;;;;;;;29.07;35.19;99725.88;5017184;28;20057;-64
2022/06/26 07:39:44;;;;;;;6.35;5.75;;;;;;;29.13;36.14;99726.41;5017025;28;20451;-65
2022/06/26 07:42:12;;;;;;;7.22;5.72;;;;;;;29.28;34.89;99732.97;5000937;28;20053;-64
2022/06/26 07:44:40;;;;;;;6.53;5.40;;;;;;;29.31;34.73;99726.81;5033411;28;20071;-62
2022/06/26 07:47:09;;;;;;;6.93;5.63;;;;;;;29.33;34.62;99730.00;5033583;28;20049;-64
2022/06/26 07:49:53;;;;;;;5.70;5.20;;;;;;;29.41;34.71;99727.06;5034684;28;20499;-64
2022/06/26 07:52:19;;;;;;;6.07;5.15;;;;;;;29.36;36.46;99718.34;5034584;28;20045;-63
2022/06/26 07:54:45;;;;;;;8.23;5.18;;;;;;;29.48;35.56;99729.16;5033068;28;20033;-64
2022/06/26 07:57:11;;;;;;;6.95;5.15;;;;;;;29.61;34.42;99727.88;5034844;28;20033;-64
2022/06/26 07:59:37;;;;;;;5.75;4.53;;;;;;;29.60;34.28;99720.06;5032965;28;20131;-63
2022/06/26 08:02:02;;;;;;;5.45;4.65;;;;;;;29.63;33.53;99733.81;5034728;28;20041;-63
2022/06/26 08:04:28;;;;;;;6.35;4.93;;;;;;;29.51;34.21;99733.13;5034480;28;20126;-64
2022/06/26 08:06:54;;;;;;;6.45;5.22;;;;;;;29.50;34.68;99734.25;5033219;28;20042;-63
2022/06/26 08:09:20;;;;;;;5.97;5.40;;;;;;;29.50;34.11;99724.13;5033242;28;20038;-63
2022/06/26 08:11:45;;;;;;;6.25;5.30;;;;;;;29.60;33.81;99725.50;5032993;28;20045;-63
2022/06/26 08:14:11;;;;;;;5.93;5.43;;;;;;;29.69;33.36;99728.06;5034128;28;20597;-63
2022/06/26 08:16:37;;;;;;;5.50;5.00;;;;;;;29.79;33.47;99725.56;5032805;28;20522;-64
2022/06/26 08:19:02;;;;;;;5.65;4.70;;;;;;;29.91;33.50;99727.34;5032185;28;20053;-64
2022/06/26 08:24:12;;;;;;;6.03;5.38;;;;;;;29.70;33.51;99721.47;5033942;28;20038;-63
2022/06/26 08:26:38;;;;;;;5.82;5.32;;;;;;;29.80;33.79;99718.97;5033894;28;20049;-63
2022/06/26 08:29:04;;;;;;;5.63;5.13;;;;;;;29.79;34.01;99711.88;5034104;28;20046;-63
2022/06/26 08:31:29;;;;;;;5.90;5.40;;;;;;;29.94;33.63;99707.50;5033865;28;20051;-63
2022/06/26 08:33:55;;;;;;;7.00;5.35;;;;;;;30.05;33.65;99716.72;5033979;28;20077;-63
2022/06/26 08:36:21;;;;;;;7.07;5.90;;;;;;;30.16;33.58;99707.94;5034019;28;20411;-63
2022/06/26 08:38:47;;;;;;;12.15;5.65;;;;;;;30.23;33.62;99702.63;5032440;28;20103;-64
2022/06/26 08:41:13;;;;;;;7.97;5.47;;;;;;;30.30;33.49;99700.84;5032429;28;20052;-64
2022/06/26 08:43:40;;;;;;;8.73;5.70;;;;;;;30.32;33.83;99701.25;5032252;28;20466;-63
2022/06/26 08:46:06;;;;;;;7.43;5.85;;;;;;;30.19;34.95;99710.75;5049118;28;20045;-64
2022/06/26 08:48:42;;;;;;;7.10;5.95;;;;;;;30.09;34.08;99703.94;5015673;28;20069;-64
2022/06/26 08:51:08;;;;;;;6.40;5.55;;;;;;;30.01;34.18;99707.66;5033448;28;20095;-64
2022/06/26 08:53:35;;;;;;;6.47;5.55;;;;;;;29.92;34.09;99717.25;5015592;28;20053;-64
2022/06/26 08:56:02;;;;;;;7.40;5.90;;;;;;;29.85;34.49;99717.88;5015834;28;20047;-65
2022/06/26 08:58:28;;;;;;;7.55;5.50;;;;;;;29.96;33.83;99709.91;5015796;28;20045;-63
2022/06/26 09:00:54;;;;;;;12.60;5.75;;;;;;;30.00;34.46;99714.28;5033337;28;20507;-65
2022/06/26 09:03:19;;;;;;;6.47;5.82;;;;;;;30.14;33.95;99705.56;5032275;28;20419;-63
2022/06/26 09:05:45;;;;;;;7.70;5.85;;;;;;;30.20;33.74;99692.38;5031986;28;20049;-61
2022/06/26 09:08:21;;;;;;;6.30;5.70;;;;;;;30.18;34.00;99705.63;4999153;28;20041;-63
2022/06/26 09:10:50;;;;;;;6.00;5.43;;;;;;;30.14;33.73;99710.25;5033112;28;20148;-64
2022/06/26 09:13:15;;;;;;;5.50;5.00;;;;;;;30.09;33.84;99703.13;5032910;28;20061;-64
2022/06/26 09:15:42;;;;;;;5.80;5.22;;;;;;;30.02;33.17;99703.00;5015548;28;20041;-65
2022/06/26 09:18:10;;;;;;;8.02;5.90;;;;;;;30.16;33.10;99688.81;5033307;28;20038;-63
2022/06/26 09:20:38;;;;;;;8.40;5.70;;;;;;;30.20;33.66;99689.66;5033180;28;20053;-64
2022/06/26 09:23:06;;;;;;;5.80;5.30;;;;;;;30.16;32.34;99689.59;5033024;28;20086;-63
2022/06/26 09:25:34;;;;;;;5.75;5.10;;;;;;;30.21;33.02;99689.34;5031700;28;20523;-63
2022/06/26 09:28:16;;;;;;;6.28;5.68;;;;;;;30.25;32.80;99692.91;5015115;28;20045;-63
2022/06/26 09:30:52;;;;;;;7.72;5.40;;;;;;;30.35;33.23;99693.47;5032117;28;20042;-64
2022/06/26 09:33:23;;;;;;;9.40;5.68;;;;;;;30.38;32.86;99693.53;5033226;28;20483;-63
2022/06/26 09:35:49;;;;;;;6.63;5.93;;;;;;;30.42;33.04;99690.88;5032879;28;20045;-62
2022/06/26 09:38:18;;;;;;;5.60;5.07;;;;;;;30.49;33.95;99685.53;5031441;28;20049;-65
2022/06/26 09:40:52;;;;;;;5.83;4.97;;;;;;;30.45;33.92;99684.69;5032576;28;20049;-63
2022/06/26 09:43:44;;;;;;;8.40;5.63;;;;;;;30.47;33.22;99672.22;5015428;28;20465;-63
2022/06/26 09:46:12;;;;;;;6.60;5.90;;;;;;;30.52;33.56;99671.13;5032553;28;20045;-64
2022/06/26 09:48:40;;;;;;;6.07;5.47;;;;;;;30.41;32.95;99676.41;5032434;28;20041;-63
2022/06/26 09:51:10;;;;;;;5.80;5.20;;;;;;;30.41;33.09;99668.19;5032228;28;20053;-64
2022/06/26 09:53:37;;;;;;;6.72;5.57;;;;;;;30.26;33.00;99664.41;5032233;28;20514;-64
2022/06/26 09:56:03;;;;;;;7.93;5.40;;;;;;;30.29;32.87;99671.09;5032243;28;20041;-63
2022/06/26 09:58:29;;;;;;;5.35;4.95;;;;;;;30.19;31.63;99672.47;5031981;28;20416;-64
2022/06/26 10:06:28;;;;;;;5.57;5.00;;;;;;;29.97;32.39;99660.31;5032086;28;20400;-62
2022/06/26 10:09:06;;;;;;;8.48;5.18;;;;;;;30.04;33.16;99662.44;5030640;28;20041;-63
2022/06/26 10:11:34;;;;;;;8.00;6.05;;;;;;;30.14;32.94;99663.78;5032091;28;20120;-64
2022/06/26 10:14:05;;;;;;;6.43;5.55;;;;;;;30.20;32.65;99657.63;5031744;28;20055;-62
2022/06/26 10:16:31;;;;;;;5.80;5.20;;;;;;;30.25;32.44;99660.09;5030765;28;20446;-63
2022/06/26 10:19:10;;;;;;;5.80;5.20;;;;;;;30.26;33.10;99658.16;5031900;28;20076;-64
2022/06/26 10:21:39;;;;;;;5.70;5.13;;;;;;;30.23;33.83;99661.63;5030662;28;20415;-63
2022/06/26 10:24:05;;;;;;;6.45;5.50;;;;;;;30.11;33.60;99657.88;4997809;28;20096;-65
2022/06/26 10:26:32;;;;;;;9.70;5.68;;;;;;;29.91;34.62;99652.78;5030590;28;20400;-63
2022/06/26 10:29:02;;;;;;;6.13;5.40;;;;;;;29.64;34.18;99658.13;5030713;28;20045;-62
2022/06/26 10:31:48;;;;;;;6.00;5.50;;;;;;;29.55;34.24;99662.97;4997442;28;20045;-62
2022/06/26 10:34:25;;;;;;;6.95;5.80;;;;;;;29.63;33.98;99659.28;5031625;28;20521;-63
2022/06/26 10:37:15;;;;;;;6.13;5.32;;;;;;;29.85;33.42;99655.03;5030511;28;20459;-63
2022/06/26 10:39:49;;;;;;;5.38;4.90;;;;;;;29.92;32.93;99649.72;5031934;28;20042;-64
2022/06/26 10:45:19;;;;;;;5.40;4.90;;;;;;;30.27;33.57;99651.56;5030117;28;20131;-64
2022/06/26 10:47:49;;;;;;;7.63;5.25;;;;;;;30.35;32.18;99641.50;5030093;28;20095;-64
2022/06/26 10:50:35;;;;;;;5.85;5.35;;;;;;;30.37;31.70;99641.94;5031208;28;20531;-64
2022/06/26 10:53:24;;;;;;;4.93;4.53;;;;;;;30.35;32.39;99636.84;5030141;28;20092;-64
2022/06/26 10:55:53;;;;;;;6.32;5.40;;;;;;;30.39;32.39;99637.69;5030086;28;20049;-65
2022/06/26 10:58:23;;;;;;;;;;;;;;;30.43;32.77;99629.56;5013991;28;20077;-63
2022/06/26 11:00:50;;;;;;;6.05;5.47;;;;;;;30.31;33.48;99644.97;5030200;28;19921;-64
2022/06/26 11:03:17;;;;;;;5.60;4.90;;;;;;;30.16;34.12;99642.34;5030778;28;20048;-63
2022/06/26 11:05:54;;;;;;;6.88;5.50;;;;;;;30.05;34.10;99656.59;5031084;28;20037;-63
2022/06/26 11:08:33;;;;;;;5.70;5.07;;;;;;;29.99;34.31;99644.38;5031526;28;20450;-63
2022/06/26 11:11:10;;;;;;;5.70;5.20;;;;;;;29.93;34.35;99643.09;5030913;28;20042;-63
2022/06/26 11:13:50;;;;;;;6.60;5.20;;;;;;;29.99;34.33;99644.38;5029783;28;20547;-63
2022/06/26 11:16:17;;;;;;;6.47;5.40;;;;;;;30.06;33.80;99633.59;5031052;28;20051;-65
2022/06/26 11:18:42;;;;;;;5.13;4.72;;;;;;;30.08;32.45;99628.53;5031011;28;20045;-64
2022/06/26 11:21:08;;;;;;;8.13;4.90;;;;;;;30.16;32.65;99625.94;5029995;28;20037;-63
2022/06/26 11:23:36;;;;;;;5.53;5.03;;;;;;;30.10;32.43;99625.44;5030910;28;20403;-64
2022/06/26 11:26:06;;;;;;;8.18;5.00;;;;;;;30.03;33.02;99631.56;5031180;28;20038;-64
2022/06/26 11:28:42;;;;;;;5.13;4.65;;;;;;;30.00;31.57;99624.09;5031146;28;20048;-64
2022/06/26 11:31:19;;;;;;;6.95;5.10;;;;;;;29.98;32.43;99631.88;5030889;28;20037;-64
2022/06/26 11:33:44;;;;;;;5.78;5.28;;;;;;;30.11;32.28;99624.28;5029868;28;20038;-66
2022/06/26 11:36:12;;;;;;;6.10;5.50;;;;;;;30.28;32.06;99623.06;5031147;28;20156;-62
2022/06/26 11:38:38;;;;;;;6.20;5.60;;;;;;;30.35;32.37;99616.91;5031129;28;20041;-63
2022/06/26 11:41:06;;;;;;;5.70;5.20;;;;;;;30.37;31.94;99618.13;5030764;28;20056;-65
2022/06/26 11:43:32;;;;;;;6.03;5.40;;;;;;;30.50;32.22;99622.28;5031030;28;20046;-64
2022/06/26 11:45:59;;;;;;;6.03;5.47;;;;;;;30.63;32.31;99616.59;5031121;28;20416;-64
2022/06/26 11:48:25;;;;;;;5.85;5.20;;;;;;;30.70;32.37;99619.44;5029656;28;20089;-64
2022/06/26 11:50:53;;;;;;;5.65;5.20;;;;;;;30.62;31.81;99623.22;5030658;28;20069;-65